Terminal Aerodrome Forecast
Issued by NWS Mt. Holly, NJ

Home | Current Version | Previous Version | Text Only | Print | Product List | Glossary On
Versions: 1 2 3 4 5 6 7 8 9 10 11 12 13 14 15 16 17 18 19 20 21 22 23 24 25 26 27 28 29 30 31 32 33 34 35 36 37 38 39 40 41 42 43 44 45 46 47 48 49 50
000
FTAK31 PANC 260525
TAFABE
TAF
PABE 260525Z 2606/2706 22012KT P6SM -SHRA SCT030 BKN060
     FM260800 19008KT P6SM VCSH SCT025 BKN040
     FM261200 18006KT P6SM VCSH SCT015 BKN025
     FM262000 20010KT P6SM -SHRA BKN025 BKN040=

USA.gov is the U.S. government's official web portal to all federal, state and local government web resources and services.